Sibi — AQQH — position and weather

sailwx.info

Track history (hours):
 
Tides and Currents Weather Stations Pressure Air Temp Water Temp Dewpoint Dewpoint Depression Visibility Wind Speed Wind Dir Waves Ship Positions

Sibi

Last reported at 2018-Apr-06 00:20 UTC. Time now 2018-May-25 01:26 UTC.
Position N 36°14' E 014°57'.
Warning: this ship's position is 49 days out of date.

Length 169 m; draft 9.7 m.

Type: Cargo ship. MMSI: 463043101.

Date/timePositionNaut miles runAvg speedWind from/ knotsBaromVisibWave heightAir tempDewpointWater temp
2018-Apr-06 00:20N 36°14' E 014°57'513.9
2018-Apr-06 00:00N 36°16' E 014°51'610.3
2018-Apr-05 23:27N 36°18' E 014°45'813.5
2018-Apr-05 22:50N 36°22' E 014°36'3 8.6
2018-Apr-05 22:30N 36°24' E 014°33'611.7
2018-Apr-05 22:00N 36°26' E 014°26'611.8
2018-Apr-05 21:30N 36°27' E 014°19'611.9
2018-Apr-05 20:59N 36°29' E 014°12'611.6
2018-Apr-05 20:30N 36°30' E 014°05'611.6
2018-Apr-05 20:00N 36°32' E 013°58'611.6
2018-Apr-05 19:29N 36°34' E 013°51'912.4
2018-Apr-05 18:48N 36°36' E 013°41'310.0
2018-Apr-05 18:30N 36°37' E 013°37'611.6
2018-Apr-05 18:00N 36°39' E 013°30'611.7
2018-Apr-05 17:30N 36°41' E 013°24'611.8
2018-Apr-05 17:00N 36°43' E 013°16'611.8
2018-Apr-05 16:30N 36°44' E 013°09'713.4
2018-Apr-05 16:00N 36°46' E 013°01'510.4
2018-Apr-05 15:30N 36°47' E 012°55'611.9
2018-Apr-05 14:59N 36°49' E 012°48'612.2
2018-Apr-05 14:29N 36°51' E 012°40'1012.3
2018-Apr-05 13:39N 36°53' E 012°28'212.7
2018-Apr-05 13:29N 36°54' E 012°26'612.1
2018-Apr-05 13:00N 36°56' E 012°19'21811.9
2018-Apr-04 18:38N 37°33' E 007°49'63013.0
2018-Apr-02 18:03N 36°01' W 005°10'114.1
2018-Apr-02 17:59N 36°02' W 005°11'713.4
2018-Apr-02 17:28N 36°05' W 005°18'5 9.4
2018-Apr-02 16:59N 36°08' W 005°23'1 1.1
2018-Apr-02 16:20N 36°08' W 005°22'0 0.1
2018-Apr-02 15:59N 36°08' W 005°22'0 0.1
2018-Apr-02 15:29N 36°08' W 005°22'0 0.0
2018-Apr-02 14:23N 36°08' W 005°22'0 0.1
2018-Apr-02 13:53N 36°08' W 005°22'0 0.1
2018-Apr-02 13:29N 36°08' W 005°22'0 0.0
2018-Apr-02 10:22N 36°08' W 005°22'0 0.0
2018-Apr-02 09:58N 36°08' W 005°22'0 0.1
2018-Apr-02 09:30N 36°08' W 005°22'2 3.5
2018-Apr-02 08:59N 36°06' W 005°22'2 4.7
2018-Apr-02 08:31N 36°05' W 005°19'9 1.0
2018-Apr-01 22:51N 36°08' W 005°08'1 0.9
2018-Apr-01 21:24N 36°09' W 005°07'5 7.3
2018-Apr-01 20:41N 36°05' W 005°11'1 7.5
2018-Apr-01 20:30N 36°04' W 005°12'510.3
2018-Apr-01 20:00N 36°02' W 005°18'510.8
2018-Apr-01 19:30N 35°59' W 005°24'4 8.0
2018-Apr-01 19:00N 35°58' W 005°28'  
2018-Mar-29 13:31N 32°19' W 009°15'0 0.0
2018-Mar-29 13:13N 32°19' W 009°15'0 0.0
2018-Mar-29 12:58N 32°19' W 009°15'0 0.0
2018-Mar-29 12:01N 32°19' W 009°15'0 0.0
2018-Mar-29 11:34N 32°19' W 009°15'0 0.0
2018-Mar-29 11:28N 32°19' W 009°15'0 0.0
2018-Mar-27 18:54N 32°19' W 009°15'0 0.0
2018-Mar-27 18:27N 32°19' W 009°15'0 0.0
2018-Mar-27 18:00N 32°19' W 009°15'0 0.0
2018-Mar-27 17:30N 32°19' W 009°15'0 0.0
2018-Mar-27 16:59N 32°19' W 009°15'0 0.0
2018-Mar-27 16:29N 32°19' W 009°15'  
Track history (hours):
 
Tides and Currents Weather Stations Pressure Air Temp Water Temp Dewpoint Dewpoint Depression Visibility Wind Speed Wind Dir Waves Ship Positions

Sibi

Last reported at 2018-Apr-06 00:20 UTC. Time now 2018-May-25 01:26 UTC.
Position N 36°14' E 014°57'.
Warning: this ship's position is 49 days out of date.

Length 169 m; draft 9.7 m.

Type: Cargo ship. MMSI: 463043101.

Date/timePositionNaut miles runAvg speedWind from/ knotsBaromVisibWave heightAir tempDewpointWater temp
2018-Apr-06 00:20N 36°14' E 014°57'513.9
2018-Apr-06 00:00N 36°16' E 014°51'610.3
2018-Apr-05 23:27N 36°18' E 014°45'813.5
2018-Apr-05 22:50N 36°22' E 014°36'3 8.6
2018-Apr-05 22:30N 36°24' E 014°33'611.7
2018-Apr-05 22:00N 36°26' E 014°26'611.8
2018-Apr-05 21:30N 36°27' E 014°19'611.9
2018-Apr-05 20:59N 36°29' E 014°12'611.6
2018-Apr-05 20:30N 36°30' E 014°05'611.6
2018-Apr-05 20:00N 36°32' E 013°58'611.6
2018-Apr-05 19:29N 36°34' E 013°51'912.4
2018-Apr-05 18:48N 36°36' E 013°41'310.0
2018-Apr-05 18:30N 36°37' E 013°37'611.6
2018-Apr-05 18:00N 36°39' E 013°30'611.7
2018-Apr-05 17:30N 36°41' E 013°24'611.8
2018-Apr-05 17:00N 36°43' E 013°16'611.8
2018-Apr-05 16:30N 36°44' E 013°09'713.4
2018-Apr-05 16:00N 36°46' E 013°01'510.4
2018-Apr-05 15:30N 36°47' E 012°55'611.9
2018-Apr-05 14:59N 36°49' E 012°48'612.2
2018-Apr-05 14:29N 36°51' E 012°40'1012.3
2018-Apr-05 13:39N 36°53' E 012°28'212.7
2018-Apr-05 13:29N 36°54' E 012°26'612.1
2018-Apr-05 13:00N 36°56' E 012°19'21811.9
2018-Apr-04 18:38N 37°33' E 007°49'63013.0
2018-Apr-02 18:03N 36°01' W 005°10'114.1
2018-Apr-02 17:59N 36°02' W 005°11'713.4
2018-Apr-02 17:28N 36°05' W 005°18'5 9.4
2018-Apr-02 16:59N 36°08' W 005°23'1 1.1
2018-Apr-02 16:20N 36°08' W 005°22'0 0.1
2018-Apr-02 15:59N 36°08' W 005°22'0 0.1
2018-Apr-02 15:29N 36°08' W 005°22'0 0.0
2018-Apr-02 14:23N 36°08' W 005°22'0 0.1
2018-Apr-02 13:53N 36°08' W 005°22'0 0.1
2018-Apr-02 13:29N 36°08' W 005°22'0 0.0
2018-Apr-02 10:22N 36°08' W 005°22'0 0.0
2018-Apr-02 09:58N 36°08' W 005°22'0 0.1
2018-Apr-02 09:30N 36°08' W 005°22'2 3.5
2018-Apr-02 08:59N 36°06' W 005°22'2 4.7
2018-Apr-02 08:31N 36°05' W 005°19'9 1.0
2018-Apr-01 22:51N 36°08' W 005°08'1 0.9
2018-Apr-01 21:24N 36°09' W 005°07'5 7.3
2018-Apr-01 20:41N 36°05' W 005°11'1 7.5
2018-Apr-01 20:30N 36°04' W 005°12'510.3
2018-Apr-01 20:00N 36°02' W 005°18'510.8
2018-Apr-01 19:30N 35°59' W 005°24'4 8.0
2018-Apr-01 19:00N 35°58' W 005°28'  
2018-Mar-29 13:31N 32°19' W 009°15'0 0.0
2018-Mar-29 13:13N 32°19' W 009°15'0 0.0
2018-Mar-29 12:58N 32°19' W 009°15'0 0.0
2018-Mar-29 12:01N 32°19' W 009°15'0 0.0
2018-Mar-29 11:34N 32°19' W 009°15'0 0.0
2018-Mar-29 11:28N 32°19' W 009°15'0 0.0
2018-Mar-27 18:54N 32°19' W 009°15'0 0.0
2018-Mar-27 18:27N 32°19' W 009°15'0 0.0
2018-Mar-27 18:00N 32°19' W 009°15'0 0.0
2018-Mar-27 17:30N 32°19' W 009°15'0 0.0
2018-Mar-27 16:59N 32°19' W 009°15'0 0.0
2018-Mar-27 16:29N 32°19' W 009°15'  

Dump ship's entire track history